NWS Home NWS Lubbock West Texas Mesonet North Sector Latest Conditions as of 0644 PM, Sun Mar 29, 2020

Latest   N   C   S   Daily Sum   3hrΔ   24hrΔ   Soil Data 
Site Map   24hr Precip   72hr Precip   Google Plot


Station Time of Last Temp Dew Pt. RH Wind Direction Wind Speed Wind Gust Max Wind Max Temp Min Temp Max RH Min RH Altimeter 1HR Rain Today's Rain Solar Rad Red Flag
Adrian 6WSW  06:40 PM 63 21 20% S2022 31 mph 189° @ 0422 PM 65 33 74 18 30.03" 0 0.00 169  
Aiken 3WSW  06:40 PM 64 30 28% SE1519 28 mph 138° @ 0612 PM 69 29 84 15 30.08" 0 0.00 172  
Amarillo 15NNW   06:40 PM 67 24 20% S1723 26 mph 174° @ 0552 PM 69 29 95 17 30.02" 0 0.00 150  
Amarillo 7SSE  06:40 PM 65 26 22% S1216 26 mph 216° @ 0418 PM 68 27 92 18 30.05" 0 0.00 187  
Amarillo 9NNE  06:40 PM 66 24 20% S1821 25 mph 180° @ 0607 PM 68 25 94 17 30.02" 0 0.00 127  
Amherst 1NE  06:40 PM 64 21 19% S1721 28 mph 157° @ 0235 PM 69 33 74 14 30.04" 0 0.00 139  
Bootleg 11WNW  06:40 PM 63 18 18% S2023 30 mph 203° @ 0332 PM 66 30 79 17 30.04" 0 0.00 222  
Boys Ranch 1WSW  06:40 PM 67 24 19% S1316 28 mph 179° @ 0530 PM 69 29 87 18 30.01" 0 0.00 184  
Canadian 6E  06:40 PM 68 28 22% SE1416 23 mph 195° @ 0136 PM 68 28 97 20 30.04" 0 0.00 275  
Caprock Canyons State Park  06:40 PM 65 31 28% SE1820 24 mph 156° @ 0533 PM 70 35 85 21 30.07" 0 0.00 164  
Childress 2NNE  06:40 PM 66 38 36% SE1518 23 mph 132° @ 0550 PM 71 37 80 24 30.08" 0 0.00 143  
Clarendon 2WSW  06:40 PM 65 30 27% SE1319 21 mph 173° @ 0525 PM 68 33 82 25 30.06" 0 0.00 149  
Claude 12SW  06:40 PM 65 23 21% S1821 24 mph 142° @ 0430 PM 68 35 73 19 30.05" 0 0.00 214  
Dimmitt 2NE  06:40 PM 63 27 25% SE1824 27 mph 182° @ 0340 PM 67 30 84 18 30.04" 0 0.00 183  
Dozier 3W  06:40 PM 67 34 30% SE1112 19 mph 182° @ 0326 PM 69 33 91 24 30.08" 0 0.00 164  
Earth 9WSW  06:40 PM 65 19 17% S2124 27 mph 160° @ 0625 PM 70 28 78 13 30.04" 0 0.00 135 4
Endee NM 2SW  06:40 PM 66 23 19% S1520 30 mph 166° @ 0612 PM 68 29 83 16 30.00" 0 0.00 236  
Estelline 3SSE  06:40 PM 68 36 31% SE1214 18 mph 148° @ 0547 PM 72 38 75 22 30.07" 0 0.00 141  
Floydada 2NNE  06:40 PM 64 29 27% SE1417 19 mph 149° @ 0350 PM 69 30 85 15 30.07" 0 0.00 127  
Friona 2NE  06:40 PM 64 22 20% S1620 29 mph 159° @ 0515 PM 67 26 92 17 30.03" 0 0.00 164  
Fritch 1WNW  06:40 PM 67 23 18% S1518 28 mph 193° @ 0525 PM 68 33 83 17 30.03" 0 0.00 217  
Goodlett 3W  06:40 PM 67 40 38% SE1215 20 mph 131° @ 0455 PM 70 40 79 28 30.07" 0 0.00 184  
Goodnight  06:40 PM 64 32 31% SE1820 22 mph 139° @ 0636 PM 67 30 100 28 30.07" 0 0.00 142  
Happy 1E  06:40 PM 64 25 23% SE1620 29 mph 191° @ 0316 PM 68 30 82 19 30.06" 0 0.00 184  
Hart 3N  06:40 PM 64 23 21% SE1421 24 mph 167° @ 0550 PM 68 29 92 16 30.05" 0 0.00 171  
Hereford 2NW  06:40 PM 64 22 20% S1420 24 mph 174° @ 0505 PM 66 26 89 18 30.03" 0 0.00 151  
Lake McClellan 2NW  06:40 PM 64 29 27% SE1618 21 mph 183° @ 1208 PM 67 31 86 23 30.07" 0 0.00 165  
Lesley 2S  06:40 PM 68 33 27% SE1719 23 mph 148° @ 0628 PM 72 35 81 22 30.06" 0 0.00 171  
McLean 1E  06:40 PM 64 29 26% S1418 20 mph 187° @ 0300 PM 66 34 81 23 30.06" 0 0.00 205  
Memphis 1NE  06:40 PM 68 30 24% SE1219 19 mph 120° @ 0435 PM 70 33 88 22 30.06" 0 0.00 126  
Muleshoe 2SSW  06:40 PM 65 18 17% S1924 28 mph 168° @ 0330 PM 69 27 89 12 30.03" 0 0.00 174  
Northfield 1S  06:40 PM 67 34 29% SE1318 21 mph 136° @ 0435 PM 72 33 85 22 30.07" 0 0.00 120  
Odell 4ENE  06:40 PM 66 43 44% SE910 18 mph 145° @ 0519 PM 69 37 92 31 30.09" 0 0.00 109  
Olton 6S  06:40 PM 63 24 22% S1620 26 mph 152° @ 0510 PM 68 29 88 17 30.06" 0 0.00 136  
Palo Duro 4E (JA Ranch)  06:40 PM 66 33 29% SE1416 22 mph 136° @ 0538 PM 69 29 91 25 30.06" 0 0.00 132  
Palo Duro Canyon SP Floor  06:40 PM 69 23 18% SE1216 23 mph 134° @ 0458 PM 72 32 79 15 30.03" 0 0.00 174  
Palo Duro Canyon State Park Rim  06:40 PM 66 22 19% SE1420 22 mph 194° @ 0356 PM 70 32 75 17 30.06" 0 0.00 228  
Palo Duro Reservoir 1NW   06:40 PM 66 26 22% S1114 27 mph 171° @ 0334 PM 67 27 88 19 30.04" 0 0.00 234  
Pampa 2E  06:40 PM 63 29 28% S1317 24 mph 174° @ 1235 PM 65 31 85 25 30.06" 0 0.00 175  
Panhandle 1SSW  06:40 PM 63 31 30% SE1721 28 mph 173° @ 0550 PM 67 29 92 21 30.06" 0 0.00 148  
Plainview 1S  06:40 PM 64 29 27% SE1423 23 mph 157° @ 0310 PM 68 35 80 19 30.05" 0 0.00 142  
Romero 11SSW  06:40 PM 67 21 17% S1417 28 mph 206° @ 0513 PM 68 30 77 16 29.99" 0 0.00 296  
Silverton 7ESE  06:40 PM 65 23 20% S1216 23 mph 145° @ 0450 PM 69 28 88 18 30.07" 0 0.00 176  
South Plains 3ENE  06:40 PM 64 29 27% SE1516 32 mph 139° @ 0359 PM 69 29 90 18 30.08" 0 0.00 153  
Stinnett 1NNW  06:40 PM 67 23 19% S1619 26 mph 187° @ 0550 PM 67 33 82 18 30.04" 0 0.00 277  
Stratford 4WNW  06:40 PM 64 27 24% S1417 29 mph 217° @ 0540 PM 66 25 83 21 30.03" 0 0.00 256  
Tulia 2ENE  06:30 PM 64 26 24% SE1621 24 mph 177° @ 0450 PM 67 27 83 20 30.06" 0 0.00 157  
Turkey 2WSW  06:40 PM 67 33 29% SE1619 24 mph 125° @ 0600 PM 70 38 71 22 30.06" 0 0.00 154  
Umbarger 3NNE  06:40 PM 64 23 21% S1720 24 mph 169° @ 0604 PM 68 24 91 17 30.04" 0 0.00 217  
Vigo Park  06:40 PM 64 24 22% SE1417 29 mph 155° @ 0352 PM 69 27 90 19 30.07" 0 0.00 147  

West Texas Mesonet Home   Site Map/Menu  NWS Lubbock Soil Data  Daily Summary Page  24hr Precip  72hr Precip  Google Plot